Time;durP1;ratioP1;P1;durP2;ratioP2;P2;SDS_P1;SDS_P2;PMS_P1;PMS_P2;Temp;Humidity;BMP_temperature;BMP_pressure;BME280_temperature;BME280_humidity;BME280_pressure;Samples;Min_cycle;Max_cycle;Signal;HPM_P1;HPM_P2
2022/03/23 00:00:00;;;;;;;29.5;24.2;;;;;;;9.8;100.0;102740;;;;
2022/03/23 00:01:00;;;;;;;29.5;24.2;;;;;;;9.8;100.0;102730;;;;
2022/03/23 00:02:03;;;;;;;29.5;24.2;;;;;;;9.8;100.0;102730;;;;
2022/03/23 00:03:00;;;;;;;29.5;24.2;;;;;;;9.8;100.0;102730;;;;
2022/03/23 00:04:00;;;;;;;29.5;24.2;;;;;;;9.8;100.0;102730;;;;
2022/03/23 00:05:00;;;;;;;29.5;24.2;;;;;;;9.8;100.0;102730;;;;
2022/03/23 00:06:00;;;;;;;31.3;24.4;;;;;;;9.8;100.0;102730;;;;
2022/03/23 00:07:00;;;;;;;31.3;24.4;;;;;;;9.8;100.0;102730;;;;
2022/03/23 00:08:00;;;;;;;31.3;24.4;;;;;;;9.8;100.0;102730;;;;
2022/03/23 00:09:00;;;;;;;31.3;24.4;;;;;;;9.7;100.0;102730;;;;
2022/03/23 00:10:00;;;;;;;31.3;24.4;;;;;;;9.7;100.0;102730;;;;
2022/03/23 00:11:01;;;;;;;31.3;24.4;;;;;;;9.7;100.0;102730;;;;
2022/03/23 00:12:00;;;;;;;31.3;24.4;;;;;;;9.7;100.0;102730;;;;
2022/03/23 00:13:00;;;;;;;31.3;24.4;;;;;;;9.6;100.0;102730;;;;
2022/03/23 00:14:00;;;;;;;31.3;24.4;;;;;;;9.6;100.0;102730;;;;
2022/03/23 00:15:00;;;;;;;31.3;24.4;;;;;;;9.6;100.0;102730;;;;
2022/03/23 00:16:00;;;;;;;31.3;24.4;;;;;;;9.6;100.0;102730;;;;
2022/03/23 00:17:00;;;;;;;31.3;24.4;;;;;;;9.5;100.0;102730;;;;
2022/03/23 00:18:00;;;;;;;31.3;24.4;;;;;;;9.5;100.0;102730;;;;
2022/03/23 00:19:00;;;;;;;31.3;24.4;;;;;;;9.5;100.0;102730;;;;
2022/03/23 00:20:00;;;;;;;31.3;24.4;;;;;;;9.5;100.0;102730;;;;
2022/03/23 00:21:00;;;;;;;31.3;24.4;;;;;;;9.5;100.0;102730;;;;
2022/03/23 00:22:01;;;;;;;31.3;24.4;;;;;;;9.5;100.0;102730;;;;
2022/03/23 00:23:00;;;;;;;31.3;24.4;;;;;;;9.5;100.0;102730;;;;
2022/03/23 00:24:00;;;;;;;31.3;24.4;;;;;;;9.5;100.0;102730;;;;
2022/03/23 00:25:00;;;;;;;31.3;24.4;;;;;;;9.4;100.0;102730;;;;
2022/03/23 00:26:00;;;;;;;29.6;23.8;;;;;;;9.4;100.0;102730;;;;
2022/03/23 00:27:00;;;;;;;29.6;23.8;;;;;;;9.5;100.0;102730;;;;
2022/03/23 00:28:00;;;;;;;29.6;23.8;;;;;;;9.5;100.0;102730;;;;
2022/03/23 00:29:00;;;;;;;29.6;23.8;;;;;;;9.4;100.0;102730;;;;
2022/03/23 00:30:00;;;;;;;29.6;23.8;;;;;;;9.4;100.0;102730;;;;
2022/03/23 00:31:02;;;;;;;29.6;23.8;;;;;;;9.4;100.0;102730;;;;
2022/03/23 00:32:00;;;;;;;29.6;23.8;;;;;;;9.4;100.0;102730;;;;
2022/03/23 00:33:02;;;;;;;29.6;23.8;;;;;;;9.3;100.0;102730;;;;
2022/03/23 00:34:00;;;;;;;29.6;23.8;;;;;;;9.3;100.0;102730;;;;
2022/03/23 00:35:01;;;;;;;29.6;23.8;;;;;;;9.3;100.0;102730;;;;
2022/03/23 00:36:00;;;;;;;29.6;23.8;;;;;;;9.3;100.0;102730;;;;
2022/03/23 00:37:00;;;;;;;29.6;23.8;;;;;;;9.2;100.0;102730;;;;
2022/03/23 00:38:00;;;;;;;29.6;23.8;;;;;;;9.2;100.0;102730;;;;
2022/03/23 00:39:00;;;;;;;29.6;23.8;;;;;;;9.2;100.0;102730;;;;
2022/03/23 00:40:00;;;;;;;29.6;23.8;;;;;;;9.2;100.0;102730;;;;
2022/03/23 00:41:00;;;;;;;29.6;23.8;;;;;;;9.2;100.0;102730;;;;
2022/03/23 00:42:03;;;;;;;29.6;23.8;;;;;;;9.2;100.0;102730;;;;
2022/03/23 00:43:01;;;;;;;29.6;23.8;;;;;;;9.2;100.0;102730;;;;
2022/03/23 00:44:00;;;;;;;29.6;23.8;;;;;;;9.2;100.0;102730;;;;
2022/03/23 00:45:00;;;;;;;29.6;23.8;;;;;;;9.1;100.0;102730;;;;
2022/03/23 00:46:00;;;;;;;29.4;24.4;;;;;;;9.1;100.0;102730;;;;
2022/03/23 00:47:00;;;;;;;29.4;24.4;;;;;;;9.1;100.0;102730;;;;
2022/03/23 00:48:00;;;;;;;29.4;24.4;;;;;;;9.1;100.0;102730;;;;
2022/03/23 00:49:00;;;;;;;29.4;24.4;;;;;;;9.0;100.0;102730;;;;
2022/03/23 00:50:00;;;;;;;29.4;24.4;;;;;;;9.0;100.0;102730;;;;
2022/03/23 00:51:00;;;;;;;29.4;24.4;;;;;;;9.0;100.0;102730;;;;
2022/03/23 00:52:05;;;;;;;29.4;24.4;;;;;;;9.0;100.0;102730;;;;
2022/03/23 00:53:00;;;;;;;29.4;24.4;;;;;;;9.0;100.0;102720;;;;
2022/03/23 00:54:00;;;;;;;29.4;24.4;;;;;;;9.0;100.0;102720;;;;
2022/03/23 00:55:00;;;;;;;29.4;24.4;;;;;;;9.0;100.0;102720;;;;
2022/03/23 00:56:00;;;;;;;29.4;24.4;;;;;;;9.0;100.0;102720;;;;
2022/03/23 00:57:01;;;;;;;29.4;24.4;;;;;;;9.0;100.0;102730;;;;
2022/03/23 00:58:00;;;;;;;29.4;24.4;;;;;;;9.0;100.0;102730;;;;
2022/03/23 00:59:00;;;;;;;29.4;24.4;;;;;;;8.9;100.0;102730;;;;
2022/03/23 01:00:00;;;;;;;29.4;24.4;;;;;;;8.9;100.0;102730;;;;
2022/03/23 01:01:00;;;;;;;29.4;24.4;;;;;;;9.0;100.0;102730;;;;
2022/03/23 01:02:00;;;;;;;29.4;24.4;;;;;;;9.0;100.0;102730;;;;
2022/03/23 01:03:00;;;;;;;29.4;24.4;;;;;;;8.9;100.0;102730;;;;
2022/03/23 01:04:00;;;;;;;29.4;24.4;;;;;;;8.9;100.0;102730;;;;
2022/03/23 01:05:00;;;;;;;29.4;24.4;;;;;;;8.9;100.0;102720;;;;
2022/03/23 01:06:00;;;;;;;32.4;25.0;;;;;;;8.9;100.0;102720;;;;
2022/03/23 01:07:00;;;;;;;32.4;25.0;;;;;;;8.9;100.0;102730;;;;
2022/03/23 01:08:00;;;;;;;32.4;25.0;;;;;;;8.9;100.0;102730;;;;
2022/03/23 01:09:00;;;;;;;32.4;25.0;;;;;;;8.8;100.0;102730;;;;
2022/03/23 01:10:00;;;;;;;32.4;25.0;;;;;;;8.8;100.0;102730;;;;
2022/03/23 01:11:00;;;;;;;32.4;25.0;;;;;;;8.8;100.0;102730;;;;
2022/03/23 01:12:00;;;;;;;32.4;25.0;;;;;;;8.8;100.0;102730;;;;
2022/03/23 01:13:00;;;;;;;32.4;25.0;;;;;;;8.7;100.0;102730;;;;
2022/03/23 01:14:00;;;;;;;32.4;25.0;;;;;;;8.7;100.0;102730;;;;
2022/03/23 01:15:00;;;;;;;32.4;25.0;;;;;;;8.7;100.0;102730;;;;
2022/03/23 01:16:00;;;;;;;32.4;25.0;;;;;;;8.7;100.0;102730;;;;
2022/03/23 01:17:00;;;;;;;32.4;25.0;;;;;;;8.7;100.0;102730;;;;
2022/03/23 01:18:00;;;;;;;32.4;25.0;;;;;;;8.7;100.0;102730;;;;
2022/03/23 01:19:00;;;;;;;32.4;25.0;;;;;;;8.6;100.0;102720;;;;
2022/03/23 01:20:00;;;;;;;32.4;25.0;;;;;;;8.6;100.0;102720;;;;
2022/03/23 01:21:01;;;;;;;32.4;25.0;;;;;;;8.5;100.0;102720;;;;
2022/03/23 01:22:00;;;;;;;32.4;25.0;;;;;;;8.5;100.0;102720;;;;
2022/03/23 01:23:00;;;;;;;32.4;25.0;;;;;;;8.5;100.0;102720;;;;
2022/03/23 01:24:00;;;;;;;32.4;25.0;;;;;;;8.5;100.0;102720;;;;
2022/03/23 01:25:00;;;;;;;32.4;25.0;;;;;;;8.5;100.0;102730;;;;
2022/03/23 01:26:00;;;;;;;30.4;25.2;;;;;;;8.5;100.0;102730;;;;
2022/03/23 01:27:01;;;;;;;30.4;25.2;;;;;;;8.6;100.0;102720;;;;
2022/03/23 01:28:00;;;;;;;30.4;25.2;;;;;;;8.6;100.0;102720;;;;
2022/03/23 01:29:00;;;;;;;30.4;25.2;;;;;;;8.5;100.0;102720;;;;
2022/03/23 01:30:00;;;;;;;30.4;25.2;;;;;;;8.5;100.0;102720;;;;
2022/03/23 01:31:00;;;;;;;30.4;25.2;;;;;;;8.5;100.0;102720;;;;
2022/03/23 01:32:00;;;;;;;30.4;25.2;;;;;;;8.5;100.0;102720;;;;
2022/03/23 01:33:00;;;;;;;30.4;25.2;;;;;;;8.2;100.0;102720;;;;
2022/03/23 01:34:00;;;;;;;30.4;25.2;;;;;;;8.2;100.0;102720;;;;
2022/03/23 01:35:00;;;;;;;30.4;25.2;;;;;;;8.3;100.0;102720;;;;
2022/03/23 01:36:00;;;;;;;30.4;25.2;;;;;;;8.3;100.0;102720;;;;
2022/03/23 01:37:00;;;;;;;30.4;25.2;;;;;;;8.3;100.0;102720;;;;
2022/03/23 01:38:00;;;;;;;30.4;25.2;;;;;;;8.3;100.0;102720;;;;
2022/03/23 01:39:00;;;;;;;30.4;25.2;;;;;;;8.3;100.0;102710;;;;
2022/03/23 01:40:00;;;;;;;30.4;25.2;;;;;;;8.3;100.0;102710;;;;
2022/03/23 01:41:00;;;;;;;30.4;25.2;;;;;;;8.3;100.0;102710;;;;
2022/03/23 01:42:00;;;;;;;30.4;25.2;;;;;;;8.3;100.0;102710;;;;
2022/03/23 01:43:00;;;;;;;30.4;25.2;;;;;;;8.3;100.0;102710;;;;
2022/03/23 01:44:00;;;;;;;30.4;25.2;;;;;;;8.3;100.0;102710;;;;
2022/03/23 01:45:00;;;;;;;30.4;25.2;;;;;;;8.3;100.0;102710;;;;
2022/03/23 01:46:01;;;;;;;32.7;25.5;;;;;;;8.3;100.0;102710;;;;
2022/03/23 01:47:03;;;;;;;32.7;25.5;;;;;;;8.2;100.0;102710;;;;
2022/03/23 01:48:00;;;;;;;32.7;25.5;;;;;;;8.2;100.0;102710;;;;
2022/03/23 01:49:00;;;;;;;32.7;25.5;;;;;;;8.1;100.0;102710;;;;
2022/03/23 01:50:00;;;;;;;32.7;25.5;;;;;;;8.1;100.0;102710;;;;
2022/03/23 01:51:00;;;;;;;32.7;25.5;;;;;;;8.2;100.0;102710;;;;
2022/03/23 01:52:00;;;;;;;32.7;25.5;;;;;;;8.2;100.0;102710;;;;
2022/03/23 01:53:00;;;;;;;32.7;25.5;;;;;;;8.2;100.0;102710;;;;
2022/03/23 01:54:00;;;;;;;32.7;25.5;;;;;;;8.2;100.0;102710;;;;
2022/03/23 01:55:01;;;;;;;32.7;25.5;;;;;;;8.1;100.0;102700;;;;
2022/03/23 01:56:00;;;;;;;32.7;25.5;;;;;;;8.1;100.0;102700;;;;
2022/03/23 01:57:01;;;;;;;32.7;25.5;;;;;;;8.1;100.0;102700;;;;
2022/03/23 01:58:00;;;;;;;32.7;25.5;;;;;;;8.1;100.0;102700;;;;
2022/03/23 01:59:00;;;;;;;32.7;25.5;;;;;;;8.1;100.0;102700;;;;
2022/03/23 02:00:00;;;;;;;32.7;25.5;;;;;;;8.1;100.0;102700;;;;
2022/03/23 02:01:00;;;;;;;32.7;25.5;;;;;;;8.1;100.0;102700;;;;
2022/03/23 02:02:01;;;;;;;32.7;25.5;;;;;;;8.1;100.0;102700;;;;
2022/03/23 02:03:00;;;;;;;32.7;25.5;;;;;;;8.1;100.0;102700;;;;
2022/03/23 02:04:00;;;;;;;32.7;25.5;;;;;;;8.1;100.0;102700;;;;
2022/03/23 02:05:01;;;;;;;32.7;25.5;;;;;;;8.0;100.0;102700;;;;
2022/03/23 02:06:00;;;;;;;32.6;26.7;;;;;;;8.0;100.0;102700;;;;
2022/03/23 02:07:00;;;;;;;32.6;26.7;;;;;;;8.1;100.0;102700;;;;
2022/03/23 02:08:00;;;;;;;32.6;26.7;;;;;;;8.1;100.0;102700;;;;
2022/03/23 02:09:00;;;;;;;32.6;26.7;;;;;;;7.7;100.0;102700;;;;
2022/03/23 02:10:00;;;;;;;32.6;26.7;;;;;;;7.7;100.0;102700;;;;
2022/03/23 02:11:00;;;;;;;32.6;26.7;;;;;;;7.8;100.0;102700;;;;
2022/03/23 02:12:02;;;;;;;32.6;26.7;;;;;;;7.8;100.0;102700;;;;
2022/03/23 02:13:00;;;;;;;32.6;26.7;;;;;;;7.9;100.0;102700;;;;
2022/03/23 02:14:00;;;;;;;32.6;26.7;;;;;;;7.9;100.0;102700;;;;
2022/03/23 02:15:08;;;;;;;32.6;26.7;;;;;;;7.8;100.0;102700;;;;
2022/03/23 02:16:00;;;;;;;32.6;26.7;;;;;;;7.8;100.0;102700;;;;
2022/03/23 02:17:00;;;;;;;32.6;26.7;;;;;;;7.8;100.0;102690;;;;
2022/03/23 02:18:00;;;;;;;32.6;26.7;;;;;;;7.8;100.0;102690;;;;
2022/03/23 02:19:00;;;;;;;32.6;26.7;;;;;;;7.8;100.0;102690;;;;
2022/03/23 02:20:00;;;;;;;32.6;26.7;;;;;;;7.8;100.0;102690;;;;
2022/03/23 02:21:00;;;;;;;32.6;26.7;;;;;;;7.8;100.0;102690;;;;
2022/03/23 02:22:00;;;;;;;32.6;26.7;;;;;;;7.8;100.0;102690;;;;
2022/03/23 02:23:00;;;;;;;32.6;26.7;;;;;;;7.8;100.0;102690;;;;
2022/03/23 02:24:02;;;;;;;32.6;26.7;;;;;;;7.8;100.0;102690;;;;
2022/03/23 02:25:00;;;;;;;32.6;26.7;;;;;;;7.7;100.0;102690;;;;
2022/03/23 02:26:00;;;;;;;33.1;26.5;;;;;;;7.7;100.0;102690;;;;
2022/03/23 02:27:00;;;;;;;33.1;26.5;;;;;;;7.8;100.0;102690;;;;
2022/03/23 02:28:00;;;;;;;33.1;26.5;;;;;;;7.8;100.0;102690;;;;
2022/03/23 02:29:00;;;;;;;33.1;26.5;;;;;;;7.8;100.0;102690;;;;
2022/03/23 02:30:00;;;;;;;33.1;26.5;;;;;;;7.8;100.0;102690;;;;
2022/03/23 02:31:01;;;;;;;33.1;26.5;;;;;;;7.7;100.0;102690;;;;
2022/03/23 02:32:02;;;;;;;33.1;26.5;;;;;;;7.7;100.0;102690;;;;
2022/03/23 02:33:01;;;;;;;33.1;26.5;;;;;;;7.7;100.0;102690;;;;
2022/03/23 02:34:00;;;;;;;33.1;26.5;;;;;;;7.7;100.0;102690;;;;
2022/03/23 02:35:00;;;;;;;33.1;26.5;;;;;;;7.6;100.0;102690;;;;
2022/03/23 02:36:00;;;;;;;33.1;26.5;;;;;;;7.6;100.0;102690;;;;
2022/03/23 02:37:00;;;;;;;33.1;26.5;;;;;;;7.6;100.0;102690;;;;
2022/03/23 02:38:00;;;;;;;33.1;26.5;;;;;;;7.6;100.0;102690;;;;
2022/03/23 02:39:01;;;;;;;33.1;26.5;;;;;;;7.6;100.0;102690;;;;
2022/03/23 02:40:00;;;;;;;33.1;26.5;;;;;;;7.6;100.0;102690;;;;
2022/03/23 02:41:00;;;;;;;33.1;26.5;;;;;;;7.6;100.0;102690;;;;
2022/03/23 02:42:00;;;;;;;33.1;26.5;;;;;;;7.6;100.0;102690;;;;
2022/03/23 02:43:00;;;;;;;33.1;26.5;;;;;;;7.5;100.0;102680;;;;
2022/03/23 02:44:00;;;;;;;33.1;26.5;;;;;;;7.5;100.0;102680;;;;
2022/03/23 02:45:00;;;;;;;33.1;26.5;;;;;;;7.5;100.0;102690;;;;
2022/03/23 02:46:00;;;;;;;33.1;26.6;;;;;;;7.5;100.0;102690;;;;
2022/03/23 02:47:01;;;;;;;33.1;26.6;;;;;;;7.5;100.0;102680;;;;
2022/03/23 02:48:00;;;;;;;33.1;26.6;;;;;;;7.5;100.0;102680;;;;
2022/03/23 02:49:00;;;;;;;33.1;26.6;;;;;;;7.4;100.0;102690;;;;
2022/03/23 02:50:01;;;;;;;33.1;26.6;;;;;;;7.4;100.0;102690;;;;
2022/03/23 02:51:00;;;;;;;33.1;26.6;;;;;;;7.4;100.0;102680;;;;
2022/03/23 02:52:00;;;;;;;33.1;26.6;;;;;;;7.4;100.0;102680;;;;
2022/03/23 03:02:09;;;;;;;33.1;26.6;;;;;;;7.3;100.0;102690;;;;
2022/03/23 03:03:00;;;;;;;33.1;26.6;;;;;;;7.2;100.0;102690;;;;
2022/03/23 03:04:00;;;;;;;33.1;26.6;;;;;;;7.2;100.0;102690;;;;
2022/03/23 03:05:00;;;;;;;33.0;26.6;;;;;;;7.2;100.0;102700;;;;
2022/03/23 03:06:02;;;;;;;33.0;26.6;;;;;;;7.2;100.0;102700;;;;
2022/03/23 03:07:00;;;;;;;33.0;26.6;;;;;;;7.2;100.0;102700;;;;
2022/03/23 03:09:00;;;;;;;33.0;26.6;;;;;;;7.2;100.0;102700;;;;
2022/03/23 03:10:00;;;;;;;33.0;26.6;;;;;;;7.2;100.0;102700;;;;
2022/03/23 03:11:00;;;;;;;33.0;26.6;;;;;;;7.2;100.0;102700;;;;
2022/03/23 03:12:01;;;;;;;33.0;26.6;;;;;;;7.2;100.0;102700;;;;
2022/03/23 03:13:00;;;;;;;33.0;26.6;;;;;;;7.2;100.0;102690;;;;
2022/03/23 03:14:00;;;;;;;33.0;26.6;;;;;;;7.2;100.0;102690;;;;
2022/03/23 03:15:00;;;;;;;33.0;26.6;;;;;;;7.1;100.0;102690;;;;
2022/03/23 03:16:02;;;;;;;33.0;26.6;;;;;;;7.1;100.0;102690;;;;
2022/03/23 03:17:00;;;;;;;33.0;26.6;;;;;;;7.1;100.0;102700;;;;
2022/03/23 03:18:00;;;;;;;33.0;26.6;;;;;;;7.1;100.0;102700;;;;
2022/03/23 03:19:00;;;;;;;33.0;26.6;;;;;;;7.1;100.0;102700;;;;
2022/03/23 03:20:00;;;;;;;33.0;26.6;;;;;;;7.1;100.0;102700;;;;
2022/03/23 03:21:03;;;;;;;33.0;26.6;;;;;;;7.1;100.0;102700;;;;
2022/03/23 03:22:00;;;;;;;33.0;26.6;;;;;;;7.1;100.0;102700;;;;
2022/03/23 03:23:00;;;;;;;33.0;26.6;;;;;;;7.1;100.0;102700;;;;
2022/03/23 03:24:01;;;;;;;33.0;26.6;;;;;;;7.1;100.0;102700;;;;
2022/03/23 03:25:00;;;;;;;31.8;25.6;;;;;;;7.1;100.0;102700;;;;
2022/03/23 03:26:05;;;;;;;31.8;25.6;;;;;;;7.1;100.0;102700;;;;
2022/03/23 03:27:00;;;;;;;31.8;25.6;;;;;;;7.0;100.0;102700;;;;
2022/03/23 03:28:00;;;;;;;31.8;25.6;;;;;;;7.0;100.0;102700;;;;
2022/03/23 03:29:00;;;;;;;31.8;25.6;;;;;;;7.0;100.0;102700;;;;
2022/03/23 03:30:00;;;;;;;31.8;25.6;;;;;;;7.0;100.0;102700;;;;
2022/03/23 03:31:01;;;;;;;31.8;25.6;;;;;;;7.0;100.0;102700;;;;
2022/03/23 03:32:00;;;;;;;31.8;25.6;;;;;;;7.0;100.0;102700;;;;
2022/03/23 03:33:00;;;;;;;31.8;25.6;;;;;;;7.0;100.0;102700;;;;
2022/03/23 03:34:00;;;;;;;31.8;25.6;;;;;;;7.0;100.0;102700;;;;
2022/03/23 03:35:00;;;;;;;31.8;25.6;;;;;;;6.9;100.0;102710;;;;
2022/03/23 03:36:00;;;;;;;31.8;25.6;;;;;;;6.9;100.0;102710;;;;
2022/03/23 03:37:00;;;;;;;31.8;25.6;;;;;;;6.9;100.0;102710;;;;
2022/03/23 03:38:00;;;;;;;31.8;25.6;;;;;;;6.9;100.0;102710;;;;
2022/03/23 03:39:00;;;;;;;31.8;25.6;;;;;;;6.9;100.0;102710;;;;
2022/03/23 03:40:00;;;;;;;31.8;25.6;;;;;;;6.9;100.0;102710;;;;
2022/03/23 03:41:01;;;;;;;31.8;25.6;;;;;;;6.9;100.0;102710;;;;
2022/03/23 03:42:01;;;;;;;31.8;25.6;;;;;;;6.9;100.0;102710;;;;
2022/03/23 03:43:00;;;;;;;31.8;25.6;;;;;;;6.9;100.0;102710;;;;
2022/03/23 03:44:00;;;;;;;31.8;25.6;;;;;;;6.9;100.0;102710;;;;
2022/03/23 03:45:00;;;;;;;31.9;26.3;;;;;;;6.9;100.0;102710;;;;
2022/03/23 03:46:01;;;;;;;31.9;26.3;;;;;;;6.9;100.0;102710;;;;
2022/03/23 03:47:05;;;;;;;31.9;26.3;;;;;;;6.8;100.0;102710;;;;
2022/03/23 03:48:00;;;;;;;31.9;26.3;;;;;;;6.8;100.0;102710;;;;
2022/03/23 03:49:00;;;;;;;31.9;26.3;;;;;;;6.8;100.0;102710;;;;
2022/03/23 03:50:00;;;;;;;31.9;26.3;;;;;;;6.8;100.0;102710;;;;
2022/03/23 03:51:00;;;;;;;31.9;26.3;;;;;;;6.8;100.0;102710;;;;
2022/03/23 03:52:01;;;;;;;31.9;26.3;;;;;;;6.8;100.0;102710;;;;
2022/03/23 03:53:00;;;;;;;31.9;26.3;;;;;;;6.7;100.0;102710;;;;
2022/03/23 03:54:00;;;;;;;31.9;26.3;;;;;;;6.7;100.0;102710;;;;
2022/03/23 03:55:00;;;;;;;31.9;26.3;;;;;;;6.7;100.0;102710;;;;
2022/03/23 03:56:00;;;;;;;31.9;26.3;;;;;;;6.7;100.0;102710;;;;
2022/03/23 03:57:00;;;;;;;31.9;26.3;;;;;;;6.7;100.0;102710;;;;
2022/03/23 03:58:00;;;;;;;31.9;26.3;;;;;;;6.7;100.0;102710;;;;
2022/03/23 03:59:00;;;;;;;31.9;26.3;;;;;;;6.6;100.0;102720;;;;
2022/03/23 04:00:00;;;;;;;31.9;26.3;;;;;;;6.6;100.0;102720;;;;
2022/03/23 04:01:00;;;;;;;31.9;26.3;;;;;;;6.6;100.0;102720;;;;
2022/03/23 04:02:00;;;;;;;31.9;26.3;;;;;;;6.6;100.0;102720;;;;
2022/03/23 04:03:01;;;;;;;31.9;26.3;;;;;;;6.6;100.0;102710;;;;
2022/03/23 04:04:00;;;;;;;31.9;26.3;;;;;;;6.6;100.0;102710;;;;
2022/03/23 04:05:00;;;;;;;33.3;26.7;;;;;;;6.7;100.0;102710;;;;
2022/03/23 04:06:00;;;;;;;33.3;26.7;;;;;;;6.7;100.0;102710;;;;
2022/03/23 04:07:00;;;;;;;33.3;26.7;;;;;;;6.6;100.0;102710;;;;
2022/03/23 04:08:00;;;;;;;33.3;26.7;;;;;;;6.6;100.0;102710;;;;
2022/03/23 04:09:00;;;;;;;33.3;26.7;;;;;;;6.6;100.0;102710;;;;
2022/03/23 04:10:00;;;;;;;33.3;26.7;;;;;;;6.6;100.0;102710;;;;
2022/03/23 04:11:00;;;;;;;33.3;26.7;;;;;;;6.5;100.0;102710;;;;
2022/03/23 04:12:00;;;;;;;33.3;26.7;;;;;;;6.5;100.0;102710;;;;
2022/03/23 04:13:00;;;;;;;33.3;26.7;;;;;;;6.5;100.0;102710;;;;
2022/03/23 04:14:00;;;;;;;33.3;26.7;;;;;;;6.5;100.0;102710;;;;
2022/03/23 04:15:00;;;;;;;33.3;26.7;;;;;;;6.6;100.0;102710;;;;
2022/03/23 04:16:00;;;;;;;33.3;26.7;;;;;;;6.6;100.0;102710;;;;
2022/03/23 04:17:00;;;;;;;33.3;26.7;;;;;;;6.5;100.0;102720;;;;
2022/03/23 04:18:00;;;;;;;33.3;26.7;;;;;;;6.5;100.0;102720;;;;
2022/03/23 04:19:00;;;;;;;33.3;26.7;;;;;;;6.5;100.0;102710;;;;
2022/03/23 04:20:00;;;;;;;33.3;26.7;;;;;;;6.5;100.0;102710;;;;
2022/03/23 04:21:05;;;;;;;33.3;26.7;;;;;;;6.6;100.0;102720;;;;
2022/03/23 04:22:00;;;;;;;33.3;26.7;;;;;;;6.6;100.0;102720;;;;
2022/03/23 04:23:00;;;;;;;33.3;26.7;;;;;;;6.6;100.0;102720;;;;
2022/03/23 04:24:00;;;;;;;33.3;26.7;;;;;;;6.6;100.0;102720;;;;
2022/03/23 04:25:00;;;;;;;30.0;24.0;;;;;;;6.7;100.0;102710;;;;
2022/03/23 04:26:00;;;;;;;30.0;24.0;;;;;;;6.7;100.0;102710;;;;
2022/03/23 04:27:00;;;;;;;30.0;24.0;;;;;;;6.7;100.0;102710;;;;
2022/03/23 04:28:00;;;;;;;30.0;24.0;;;;;;;6.7;100.0;102710;;;;
2022/03/23 04:29:00;;;;;;;30.0;24.0;;;;;;;6.6;100.0;102720;;;;
2022/03/23 04:30:00;;;;;;;30.0;24.0;;;;;;;6.6;100.0;102720;;;;
2022/03/23 04:31:01;;;;;;;30.0;24.0;;;;;;;6.6;100.0;102720;;;;
2022/03/23 04:32:00;;;;;;;30.0;24.0;;;;;;;6.6;100.0;102720;;;;
2022/03/23 04:33:00;;;;;;;30.0;24.0;;;;;;;6.6;100.0;102720;;;;
2022/03/23 04:34:00;;;;;;;30.0;24.0;;;;;;;6.6;100.0;102720;;;;
2022/03/23 04:35:00;;;;;;;30.0;24.0;;;;;;;6.6;100.0;102720;;;;
2022/03/23 04:36:00;;;;;;;30.0;24.0;;;;;;;6.6;100.0;102720;;;;
2022/03/23 04:37:00;;;;;;;30.0;24.0;;;;;;;6.6;100.0;102720;;;;
2022/03/23 04:38:00;;;;;;;30.0;24.0;;;;;;;6.6;100.0;102720;;;;
2022/03/23 04:39:00;;;;;;;30.0;24.0;;;;;;;6.6;100.0;102730;;;;
2022/03/23 04:40:00;;;;;;;30.0;24.0;;;;;;;6.6;100.0;102730;;;;
2022/03/23 04:41:00;;;;;;;30.0;24.0;;;;;;;6.6;100.0;102730;;;;
2022/03/23 04:42:00;;;;;;;30.0;24.0;;;;;;;6.6;100.0;102730;;;;
2022/03/23 04:43:00;;;;;;;30.0;24.0;;;;;;;6.6;100.0;102730;;;;
2022/03/23 04:44:00;;;;;;;30.0;24.0;;;;;;;6.6;100.0;102730;;;;
2022/03/23 04:45:00;;;;;;;30.7;24.9;;;;;;;6.6;100.0;102730;;;;
2022/03/23 04:46:00;;;;;;;30.7;24.9;;;;;;;6.6;100.0;102730;;;;
2022/03/23 04:47:00;;;;;;;30.7;24.9;;;;;;;6.6;100.0;102730;;;;
2022/03/23 04:48:00;;;;;;;30.7;24.9;;;;;;;6.6;100.0;102730;;;;
2022/03/23 04:49:00;;;;;;;30.7;24.9;;;;;;;6.6;100.0;102730;;;;
2022/03/23 04:50:02;;;;;;;30.7;24.9;;;;;;;6.6;100.0;102730;;;;
2022/03/23 04:51:00;;;;;;;30.7;24.9;;;;;;;6.5;100.0;102730;;;;
2022/03/23 04:52:00;;;;;;;30.7;24.9;;;;;;;6.5;100.0;102730;;;;
2022/03/23 04:53:00;;;;;;;30.7;24.9;;;;;;;6.5;100.0;102730;;;;
2022/03/23 04:54:02;;;;;;;30.7;24.9;;;;;;;6.5;100.0;102730;;;;
2022/03/23 04:55:00;;;;;;;30.7;24.9;;;;;;;6.4;100.0;102740;;;;
2022/03/23 04:56:00;;;;;;;30.7;24.9;;;;;;;6.4;100.0;102740;;;;
2022/03/23 04:57:00;;;;;;;30.7;24.9;;;;;;;6.4;100.0;102730;;;;
2022/03/23 04:58:00;;;;;;;30.7;24.9;;;;;;;6.4;100.0;102730;;;;
2022/03/23 04:59:00;;;;;;;30.7;24.9;;;;;;;6.4;100.0;102730;;;;
2022/03/23 05:00:00;;;;;;;30.7;24.9;;;;;;;6.4;100.0;102730;;;;
2022/03/23 05:01:01;;;;;;;30.7;24.9;;;;;;;6.3;100.0;102730;;;;
2022/03/23 05:02:00;;;;;;;30.7;24.9;;;;;;;6.3;100.0;102730;;;;
2022/03/23 05:03:00;;;;;;;30.7;24.9;;;;;;;6.2;100.0;102730;;;;
2022/03/23 05:04:00;;;;;;;30.7;24.9;;;;;;;6.2;100.0;102730;;;;
2022/03/23 05:05:00;;;;;;;28.9;23.5;;;;;;;6.3;100.0;102740;;;;
2022/03/23 05:06:00;;;;;;;28.9;23.5;;;;;;;6.3;100.0;102740;;;;
2022/03/23 05:07:00;;;;;;;28.9;23.5;;;;;;;6.2;100.0;102740;;;;
2022/03/23 05:08:00;;;;;;;28.9;23.5;;;;;;;6.2;100.0;102740;;;;
2022/03/23 05:09:00;;;;;;;28.9;23.5;;;;;;;6.2;100.0;102740;;;;
2022/03/23 05:10:00;;;;;;;28.9;23.5;;;;;;;6.2;100.0;102740;;;;
2022/03/23 05:11:00;;;;;;;28.9;23.5;;;;;;;6.2;100.0;102740;;;;
2022/03/23 05:12:00;;;;;;;28.9;23.5;;;;;;;6.2;100.0;102740;;;;
2022/03/23 05:13:00;;;;;;;28.9;23.5;;;;;;;6.2;100.0;102740;;;;
2022/03/23 05:14:00;;;;;;;28.9;23.5;;;;;;;6.2;100.0;102740;;;;
2022/03/23 05:15:00;;;;;;;28.9;23.5;;;;;;;6.1;100.0;102740;;;;
2022/03/23 05:16:00;;;;;;;28.9;23.5;;;;;;;6.1;100.0;102740;;;;
2022/03/23 05:17:00;;;;;;;28.9;23.5;;;;;;;6.1;100.0;102740;;;;
2022/03/23 05:18:00;;;;;;;28.9;23.5;;;;;;;6.1;100.0;102740;;;;
2022/03/23 05:19:00;;;;;;;28.9;23.5;;;;;;;6.1;100.0;102750;;;;
2022/03/23 05:20:01;;;;;;;28.9;23.5;;;;;;;6.1;100.0;102750;;;;
2022/03/23 05:21:00;;;;;;;28.9;23.5;;;;;;;6.1;100.0;102740;;;;
2022/03/23 05:22:00;;;;;;;28.9;23.5;;;;;;;6.1;100.0;102740;;;;
2022/03/23 05:23:00;;;;;;;28.9;23.5;;;;;;;6.1;100.0;102740;;;;
2022/03/23 05:24:00;;;;;;;28.9;23.5;;;;;;;6.1;100.0;102740;;;;
2022/03/23 05:25:00;;;;;;;32.2;25.7;;;;;;;6.1;100.0;102740;;;;
2022/03/23 05:26:04;;;;;;;32.2;25.7;;;;;;;6.1;100.0;102740;;;;
2022/03/23 05:27:00;;;;;;;32.2;25.7;;;;;;;6.1;100.0;102740;;;;
2022/03/23 05:28:00;;;;;;;32.2;25.7;;;;;;;6.1;100.0;102740;;;;
2022/03/23 05:29:00;;;;;;;32.2;25.7;;;;;;;6.1;100.0;102740;;;;
2022/03/23 05:30:00;;;;;;;32.2;25.7;;;;;;;6.1;100.0;102740;;;;
2022/03/23 05:31:00;;;;;;;32.2;25.7;;;;;;;6.1;100.0;102740;;;;
2022/03/23 05:32:00;;;;;;;32.2;25.7;;;;;;;6.1;100.0;102740;;;;
2022/03/23 05:33:00;;;;;;;32.2;25.7;;;;;;;6.1;100.0;102740;;;;
2022/03/23 05:34:00;;;;;;;32.2;25.7;;;;;;;6.1;100.0;102740;;;;
2022/03/23 05:35:00;;;;;;;32.2;25.7;;;;;;;6.1;100.0;102740;;;;
2022/03/23 05:36:00;;;;;;;32.2;25.7;;;;;;;6.1;100.0;102740;;;;
2022/03/23 05:37:00;;;;;;;32.2;25.7;;;;;;;6.1;100.0;102740;;;;
2022/03/23 05:38:00;;;;;;;32.2;25.7;;;;;;;6.1;100.0;102740;;;;
2022/03/23 05:39:00;;;;;;;32.2;25.7;;;;;;;6.0;100.0;102740;;;;
2022/03/23 05:40:01;;;;;;;32.2;25.7;;;;;;;6.0;100.0;102740;;;;
2022/03/23 05:41:00;;;;;;;32.2;25.7;;;;;;;6.0;100.0;102750;;;;
2022/03/23 05:42:00;;;;;;;32.2;25.7;;;;;;;6.0;100.0;102750;;;;
2022/03/23 05:43:00;;;;;;;32.2;25.7;;;;;;;6.0;100.0;102750;;;;
2022/03/23 05:44:00;;;;;;;32.2;25.7;;;;;;;6.0;100.0;102750;;;;
2022/03/23 05:45:00;;;;;;;30.4;23.3;;;;;;;6.0;100.0;102750;;;;
2022/03/23 05:46:00;;;;;;;30.4;23.3;;;;;;;6.0;100.0;102750;;;;
2022/03/23 05:47:00;;;;;;;30.4;23.3;;;;;;;5.9;100.0;102750;;;;
2022/03/23 05:48:00;;;;;;;30.4;23.3;;;;;;;5.9;100.0;102750;;;;
2022/03/23 05:49:00;;;;;;;30.4;23.3;;;;;;;6.0;100.0;102750;;;;
2022/03/23 05:50:00;;;;;;;30.4;23.3;;;;;;;6.0;100.0;102750;;;;
2022/03/23 05:51:00;;;;;;;30.4;23.3;;;;;;;6.0;100.0;102750;;;;
2022/03/23 05:52:00;;;;;;;30.4;23.3;;;;;;;6.0;100.0;102750;;;;
2022/03/23 05:53:00;;;;;;;30.4;23.3;;;;;;;6.0;100.0;102750;;;;
2022/03/23 05:54:04;;;;;;;30.4;23.3;;;;;;;6.0;100.0;102750;;;;
2022/03/23 05:55:01;;;;;;;30.4;23.3;;;;;;;6.0;100.0;102750;;;;
2022/03/23 05:56:00;;;;;;;30.4;23.3;;;;;;;6.0;100.0;102750;;;;
2022/03/23 05:57:02;;;;;;;30.4;23.3;;;;;;;6.0;100.0;102750;;;;
2022/03/23 05:58:00;;;;;;;30.4;23.3;;;;;;;6.0;100.0;102750;;;;
2022/03/23 05:59:00;;;;;;;30.4;23.3;;;;;;;6.0;100.0;102750;;;;
2022/03/23 06:00:00;;;;;;;30.4;23.3;;;;;;;6.0;100.0;102750;;;;
2022/03/23 06:01:02;;;;;;;30.4;23.3;;;;;;;6.0;100.0;102760;;;;
2022/03/23 06:02:00;;;;;;;30.4;23.3;;;;;;;6.0;100.0;102760;;;;
2022/03/23 06:03:00;;;;;;;30.4;23.3;;;;;;;6.1;100.0;102760;;;;
2022/03/23 06:04:00;;;;;;;30.4;23.3;;;;;;;6.1;100.0;102760;;;;
2022/03/23 06:05:00;;;;;;;32.0;25.5;;;;;;;6.1;100.0;102760;;;;
2022/03/23 06:06:00;;;;;;;32.0;25.5;;;;;;;6.1;100.0;102760;;;;
2022/03/23 06:07:00;;;;;;;32.0;25.5;;;;;;;6.1;100.0;102760;;;;
2022/03/23 06:08:00;;;;;;;32.0;25.5;;;;;;;6.1;100.0;102760;;;;
2022/03/23 06:09:00;;;;;;;32.0;25.5;;;;;;;6.1;100.0;102770;;;;
2022/03/23 06:10:00;;;;;;;32.0;25.5;;;;;;;6.1;100.0;102770;;;;
2022/03/23 06:11:00;;;;;;;32.0;25.5;;;;;;;6.1;100.0;102770;;;;
2022/03/23 06:12:04;;;;;;;32.0;25.5;;;;;;;6.1;100.0;102770;;;;
2022/03/23 06:13:00;;;;;;;32.0;25.5;;;;;;;6.1;100.0;102770;;;;
2022/03/23 06:14:00;;;;;;;32.0;25.5;;;;;;;6.1;100.0;102770;;;;
2022/03/23 06:15:00;;;;;;;32.0;25.5;;;;;;;6.1;100.0;102770;;;;
2022/03/23 06:16:00;;;;;;;32.0;25.5;;;;;;;6.1;100.0;102770;;;;
2022/03/23 06:17:00;;;;;;;32.0;25.5;;;;;;;6.1;100.0;102780;;;;
2022/03/23 06:18:02;;;;;;;32.0;25.5;;;;;;;6.1;100.0;102780;;;;
2022/03/23 06:19:00;;;;;;;32.0;25.5;;;;;;;6.1;100.0;102780;;;;
2022/03/23 06:20:00;;;;;;;32.0;25.5;;;;;;;6.1;100.0;102780;;;;
2022/03/23 06:21:00;;;;;;;32.0;25.5;;;;;;;6.1;100.0;102780;;;;
2022/03/23 06:22:00;;;;;;;32.0;25.5;;;;;;;6.1;100.0;102780;;;;
2022/03/23 06:23:00;;;;;;;32.0;25.5;;;;;;;6.1;100.0;102780;;;;
2022/03/23 06:24:00;;;;;;;32.0;25.5;;;;;;;6.1;100.0;102780;;;;
2022/03/23 06:25:00;;;;;;;45.4;27.8;;;;;;;6.1;100.0;102780;;;;
2022/03/23 06:26:00;;;;;;;45.4;27.8;;;;;;;6.1;100.0;102780;;;;